sensor_id;sensor_type;location;lat;lon;timestamp;temperature;humidity
15259;DHT22;34462;51.368;12.364;2023-04-06T00:00:06;3.60;99.90
15259;DHT22;34462;51.368;12.364;2023-04-06T00:02:36;3.60;99.90
15259;DHT22;34462;51.368;12.364;2023-04-06T00:05:05;3.60;99.90
15259;DHT22;34462;51.368;12.364;2023-04-06T00:07:34;3.60;99.90
15259;DHT22;34462;51.368;12.364;2023-04-06T00:10:03;3.60;99.90
15259;DHT22;34462;51.368;12.364;2023-04-06T00:12:32;3.60;99.90
15259;DHT22;34462;51.368;12.364;2023-04-06T00:15:00;3.70;99.90
15259;DHT22;34462;51.368;12.364;2023-04-06T00:17:31;3.70;99.90
15259;DHT22;34462;51.368;12.364;2023-04-06T00:19:59;3.70;99.90
15259;DHT22;34462;51.368;12.364;2023-04-06T00:22:27;3.70;99.90
15259;DHT22;34462;51.368;12.364;2023-04-06T00:24:56;3.70;99.90
15259;DHT22;34462;51.368;12.364;2023-04-06T00:27:24;3.70;99.90
15259;DHT22;34462;51.368;12.364;2023-04-06T00:29:53;3.70;99.90
15259;DHT22;34462;51.368;12.364;2023-04-06T00:32:21;3.70;99.90
15259;DHT22;34462;51.368;12.364;2023-04-06T00:34:50;3.70;99.90
15259;DHT22;34462;51.368;12.364;2023-04-06T00:37:19;3.60;99.90
15259;DHT22;34462;51.368;12.364;2023-04-06T00:39:47;3.60;99.90
15259;DHT22;34462;51.368;12.364;2023-04-06T00:42:15;3.60;99.90
15259;DHT22;34462;51.368;12.364;2023-04-06T00:44:44;3.60;99.90
15259;DHT22;34462;51.368;12.364;2023-04-06T00:47:13;3.60;99.90
15259;DHT22;34462;51.368;12.364;2023-04-06T00:49:41;3.60;99.90
15259;DHT22;34462;51.368;12.364;2023-04-06T00:52:10;3.50;99.90
15259;DHT22;34462;51.368;12.364;2023-04-06T00:54:39;3.50;99.90
15259;DHT22;34462;51.368;12.364;2023-04-06T00:57:07;3.60;99.90
15259;DHT22;34462;51.368;12.364;2023-04-06T00:59:36;3.50;99.90
15259;DHT22;34462;51.368;12.364;2023-04-06T01:02:04;3.50;99.90
15259;DHT22;34462;51.368;12.364;2023-04-06T01:04:33;3.50;99.90
15259;DHT22;34462;51.368;12.364;2023-04-06T01:07:02;3.50;99.90
15259;DHT22;34462;51.368;12.364;2023-04-06T01:09:32;3.50;99.90
15259;DHT22;34462;51.368;12.364;2023-04-06T01:12:00;3.50;99.90
15259;DHT22;34462;51.368;12.364;2023-04-06T01:14:29;3.50;99.90
15259;DHT22;34462;51.368;12.364;2023-04-06T01:16:58;3.40;99.90
15259;DHT22;34462;51.368;12.364;2023-04-06T01:19:28;3.50;99.90
15259;DHT22;34462;51.368;12.364;2023-04-06T01:21:56;3.50;99.90
15259;DHT22;34462;51.368;12.364;2023-04-06T01:24:26;3.50;99.90
15259;DHT22;34462;51.368;12.364;2023-04-06T01:26:54;3.40;99.90
15259;DHT22;34462;51.368;12.364;2023-04-06T01:29:23;3.50;99.90
15259;DHT22;34462;51.368;12.364;2023-04-06T01:31:51;3.50;99.90
15259;DHT22;34462;51.368;12.364;2023-04-06T01:34:20;3.50;99.90
15259;DHT22;34462;51.368;12.364;2023-04-06T01:36:48;3.50;99.90
15259;DHT22;34462;51.368;12.364;2023-04-06T01:39:16;3.50;99.90
15259;DHT22;34462;51.368;12.364;2023-04-06T01:41:46;3.50;99.90
15259;DHT22;34462;51.368;12.364;2023-04-06T01:44:16;3.50;99.90
15259;DHT22;34462;51.368;12.364;2023-04-06T01:46:45;3.50;99.90
15259;DHT22;34462;51.368;12.364;2023-04-06T01:49:14;3.50;99.90
15259;DHT22;34462;51.368;12.364;2023-04-06T01:51:42;3.50;99.90
15259;DHT22;34462;51.368;12.364;2023-04-06T01:54:10;3.50;99.90
15259;DHT22;34462;51.368;12.364;2023-04-06T01:56:38;3.50;99.90
15259;DHT22;34462;51.368;12.364;2023-04-06T01:59:09;3.50;99.90
15259;DHT22;34462;51.368;12.364;2023-04-06T02:01:37;3.50;99.90
15259;DHT22;34462;51.368;12.364;2023-04-06T02:04:05;3.50;99.90
15259;DHT22;34462;51.368;12.364;2023-04-06T02:06:34;3.50;99.90
15259;DHT22;34462;51.368;12.364;2023-04-06T02:09:02;3.50;99.90
15259;DHT22;34462;51.368;12.364;2023-04-06T02:11:30;3.50;99.90
15259;DHT22;34462;51.368;12.364;2023-04-06T02:13:59;3.40;99.90
15259;DHT22;34462;51.368;12.364;2023-04-06T02:16:29;3.40;99.90
15259;DHT22;34462;51.368;12.364;2023-04-06T02:18:57;3.40;99.90
15259;DHT22;34462;51.368;12.364;2023-04-06T02:21:25;3.40;99.90
15259;DHT22;34462;51.368;12.364;2023-04-06T02:23:54;3.40;99.90
15259;DHT22;34462;51.368;12.364;2023-04-06T02:26:22;3.50;99.90
15259;DHT22;34462;51.368;12.364;2023-04-06T02:28:50;3.50;99.90
15259;DHT22;34462;51.368;12.364;2023-04-06T02:31:19;3.50;99.90
15259;DHT22;34462;51.368;12.364;2023-04-06T02:33:48;3.40;99.90
15259;DHT22;34462;51.368;12.364;2023-04-06T02:36:17;3.40;99.90
15259;DHT22;34462;51.368;12.364;2023-04-06T02:38:45;3.40;99.90
15259;DHT22;34462;51.368;12.364;2023-04-06T02:41:13;3.40;99.90
15259;DHT22;34462;51.368;12.364;2023-04-06T02:43:41;3.40;99.90
15259;DHT22;34462;51.368;12.364;2023-04-06T02:46:10;3.40;99.90
15259;DHT22;34462;51.368;12.364;2023-04-06T02:48:38;3.40;99.90
15259;DHT22;34462;51.368;12.364;2023-04-06T02:51:08;3.40;99.90
15259;DHT22;34462;51.368;12.364;2023-04-06T02:53:36;3.40;99.90
15259;DHT22;34462;51.368;12.364;2023-04-06T02:56:05;3.30;99.90
15259;DHT22;34462;51.368;12.364;2023-04-06T02:58:33;3.30;99.90
15259;DHT22;34462;51.368;12.364;2023-04-06T03:01:02;3.30;99.90
15259;DHT22;34462;51.368;12.364;2023-04-06T03:03:30;3.20;99.90
15259;DHT22;34462;51.368;12.364;2023-04-06T03:05:59;3.20;99.90
15259;DHT22;34462;51.368;12.364;2023-04-06T03:08:29;3.10;99.90
15259;DHT22;34462;51.368;12.364;2023-04-06T03:10:57;3.10;99.90
15259;DHT22;34462;51.368;12.364;2023-04-06T03:13:25;3.10;99.90
15259;DHT22;34462;51.368;12.364;2023-04-06T03:15:53;3.10;99.90
15259;DHT22;34462;51.368;12.364;2023-04-06T03:18:23;3.10;99.90
15259;DHT22;34462;51.368;12.364;2023-04-06T03:20:52;3.00;99.90
15259;DHT22;34462;51.368;12.364;2023-04-06T03:23:21;3.00;99.90
15259;DHT22;34462;51.368;12.364;2023-04-06T03:25:51;3.00;99.90
15259;DHT22;34462;51.368;12.364;2023-04-06T03:28:19;2.90;99.90
15259;DHT22;34462;51.368;12.364;2023-04-06T03:30:48;2.90;99.90
15259;DHT22;34462;51.368;12.364;2023-04-06T03:33:17;2.80;99.90
15259;DHT22;34462;51.368;12.364;2023-04-06T03:35:45;2.70;99.90
15259;DHT22;34462;51.368;12.364;2023-04-06T03:38:13;2.70;99.90
15259;DHT22;34462;51.368;12.364;2023-04-06T03:40:42;2.70;99.90
15259;DHT22;34462;51.368;12.364;2023-04-06T03:43:12;2.60;99.90
15259;DHT22;34462;51.368;12.364;2023-04-06T03:45:40;2.60;99.90
15259;DHT22;34462;51.368;12.364;2023-04-06T03:48:08;2.50;99.90
15259;DHT22;34462;51.368;12.364;2023-04-06T03:50:36;2.50;99.90
15259;DHT22;34462;51.368;12.364;2023-04-06T03:53:05;2.40;99.90
15259;DHT22;34462;51.368;12.364;2023-04-06T03:55:33;2.30;99.90
15259;DHT22;34462;51.368;12.364;2023-04-06T03:58:01;2.20;99.90
15259;DHT22;34462;51.368;12.364;2023-04-06T04:00:31;2.20;99.90
15259;DHT22;34462;51.368;12.364;2023-04-06T04:02:59;2.10;99.90
15259;DHT22;34462;51.368;12.364;2023-04-06T04:05:29;2.10;99.90
15259;DHT22;34462;51.368;12.364;2023-04-06T04:07:57;2.10;99.90
15259;DHT22;34462;51.368;12.364;2023-04-06T04:10:25;2.10;99.90
15259;DHT22;34462;51.368;12.364;2023-04-06T04:12:53;2.10;99.90
15259;DHT22;34462;51.368;12.364;2023-04-06T04:15:22;2.00;99.90
15259;DHT22;34462;51.368;12.364;2023-04-06T04:17:51;2.00;99.90
15259;DHT22;34462;51.368;12.364;2023-04-06T04:20:20;2.00;99.90
15259;DHT22;34462;51.368;12.364;2023-04-06T04:22:48;1.90;99.90
15259;DHT22;34462;51.368;12.364;2023-04-06T04:25:16;1.90;99.90
15259;DHT22;34462;51.368;12.364;2023-04-06T04:27:45;1.90;99.90
15259;DHT22;34462;51.368;12.364;2023-04-06T04:30:13;1.90;99.90
15259;DHT22;34462;51.368;12.364;2023-04-06T04:32:42;1.80;99.90
15259;DHT22;34462;51.368;12.364;2023-04-06T04:35:11;1.80;99.90
15259;DHT22;34462;51.368;12.364;2023-04-06T04:37:40;1.90;99.90
15259;DHT22;34462;51.368;12.364;2023-04-06T04:40:10;1.90;99.90
15259;DHT22;34462;51.368;12.364;2023-04-06T04:42:39;1.80;99.90
15259;DHT22;34462;51.368;12.364;2023-04-06T04:45:08;1.80;99.90
15259;DHT22;34462;51.368;12.364;2023-04-06T04:47:37;1.80;99.90
15259;DHT22;34462;51.368;12.364;2023-04-06T04:50:06;1.90;99.90
15259;DHT22;34462;51.368;12.364;2023-04-06T04:52:37;1.90;99.90
15259;DHT22;34462;51.368;12.364;2023-04-06T04:55:06;1.90;99.90
15259;DHT22;34462;51.368;12.364;2023-04-06T04:57:35;2.00;99.90
15259;DHT22;34462;51.368;12.364;2023-04-06T05:00:04;2.00;99.90
15259;DHT22;34462;51.368;12.364;2023-04-06T05:02:33;2.00;99.90
15259;DHT22;34462;51.368;12.364;2023-04-06T05:05:01;2.00;99.90
15259;DHT22;34462;51.368;12.364;2023-04-06T05:07:29;2.00;99.90
15259;DHT22;34462;51.368;12.364;2023-04-06T05:09:59;2.00;99.90
15259;DHT22;34462;51.368;12.364;2023-04-06T05:12:27;2.10;99.90
15259;DHT22;34462;51.368;12.364;2023-04-06T05:14:56;2.00;99.90
15259;DHT22;34462;51.368;12.364;2023-04-06T05:17:24;2.10;99.90
15259;DHT22;34462;51.368;12.364;2023-04-06T05:19:53;2.10;99.90
15259;DHT22;34462;51.368;12.364;2023-04-06T05:22:21;2.10;99.90
15259;DHT22;34462;51.368;12.364;2023-04-06T05:24:50;2.20;99.90
15259;DHT22;34462;51.368;12.364;2023-04-06T05:27:19;2.20;99.90
15259;DHT22;34462;51.368;12.364;2023-04-06T05:29:48;2.30;99.90
15259;DHT22;34462;51.368;12.364;2023-04-06T05:32:16;2.30;99.90
15259;DHT22;34462;51.368;12.364;2023-04-06T05:34:48;2.40;99.90
15259;DHT22;34462;51.368;12.364;2023-04-06T05:37:17;2.50;99.90
15259;DHT22;34462;51.368;12.364;2023-04-06T05:39:45;2.60;99.90
15259;DHT22;34462;51.368;12.364;2023-04-06T05:42:13;2.60;99.90
15259;DHT22;34462;51.368;12.364;2023-04-06T05:44:43;2.70;99.90
15259;DHT22;34462;51.368;12.364;2023-04-06T05:47:11;2.80;99.90
15259;DHT22;34462;51.368;12.364;2023-04-06T05:49:41;2.90;99.90
15259;DHT22;34462;51.368;12.364;2023-04-06T05:52:10;3.00;99.90
15259;DHT22;34462;51.368;12.364;2023-04-06T05:54:38;3.10;99.90
15259;DHT22;34462;51.368;12.364;2023-04-06T05:57:06;3.10;99.90
15259;DHT22;34462;51.368;12.364;2023-04-06T05:59:35;3.20;99.90
15259;DHT22;34462;51.368;12.364;2023-04-06T06:02:05;3.40;99.90
15259;DHT22;34462;51.368;12.364;2023-04-06T06:04:33;3.50;99.90
15259;DHT22;34462;51.368;12.364;2023-04-06T06:07:02;3.60;99.90
15259;DHT22;34462;51.368;12.364;2023-04-06T06:09:30;3.70;99.90
15259;DHT22;34462;51.368;12.364;2023-04-06T06:11:59;3.90;99.90
15259;DHT22;34462;51.368;12.364;2023-04-06T06:14:28;4.10;99.90
15259;DHT22;34462;51.368;12.364;2023-04-06T06:16:56;4.30;99.90
15259;DHT22;34462;51.368;12.364;2023-04-06T06:19:26;4.50;99.90
15259;DHT22;34462;51.368;12.364;2023-04-06T06:21:54;4.80;99.90
15259;DHT22;34462;51.368;12.364;2023-04-06T06:24:23;5.00;99.90
15259;DHT22;34462;51.368;12.364;2023-04-06T06:26:52;5.30;99.90
15259;DHT22;34462;51.368;12.364;2023-04-06T06:29:20;5.50;99.90
15259;DHT22;34462;51.368;12.364;2023-04-06T06:31:48;5.60;99.90
15259;DHT22;34462;51.368;12.364;2023-04-06T06:34:16;5.70;99.90
15259;DHT22;34462;51.368;12.364;2023-04-06T06:36:46;5.80;99.90
15259;DHT22;34462;51.368;12.364;2023-04-06T06:39:18;5.80;99.90
15259;DHT22;34462;51.368;12.364;2023-04-06T06:41:46;5.90;99.90
15259;DHT22;34462;51.368;12.364;2023-04-06T06:44:14;6.00;99.90
15259;DHT22;34462;51.368;12.364;2023-04-06T06:46:43;6.20;99.90
15259;DHT22;34462;51.368;12.364;2023-04-06T06:49:11;6.30;99.90
15259;DHT22;34462;51.368;12.364;2023-04-06T06:51:40;6.30;99.90
15259;DHT22;34462;51.368;12.364;2023-04-06T06:54:10;6.30;99.90
15259;DHT22;34462;51.368;12.364;2023-04-06T06:56:38;6.30;99.90
15259;DHT22;34462;51.368;12.364;2023-04-06T06:59:07;6.40;99.90
15259;DHT22;34462;51.368;12.364;2023-04-06T07:01:36;6.20;99.90
15259;DHT22;34462;51.368;12.364;2023-04-06T07:04:05;6.20;99.90
15259;DHT22;34462;51.368;12.364;2023-04-06T07:06:35;6.20;99.90
15259;DHT22;34462;51.368;12.364;2023-04-06T07:09:03;6.40;99.90
15259;DHT22;34462;51.368;12.364;2023-04-06T07:11:33;6.50;99.90
15259;DHT22;34462;51.368;12.364;2023-04-06T07:14:01;6.60;99.90
15259;DHT22;34462;51.368;12.364;2023-04-06T07:16:29;6.70;99.90
15259;DHT22;34462;51.368;12.364;2023-04-06T07:18:58;6.90;99.90
15259;DHT22;34462;51.368;12.364;2023-04-06T07:21:26;7.10;99.90
15259;DHT22;34462;51.368;12.364;2023-04-06T07:23:54;7.40;99.90
15259;DHT22;34462;51.368;12.364;2023-04-06T07:26:24;7.60;99.90
15259;DHT22;34462;51.368;12.364;2023-04-06T07:28:54;7.70;99.90
15259;DHT22;34462;51.368;12.364;2023-04-06T07:31:22;7.50;99.90
15259;DHT22;34462;51.368;12.364;2023-04-06T07:33:50;7.60;99.90
15259;DHT22;34462;51.368;12.364;2023-04-06T07:36:20;7.50;99.90
15259;DHT22;34462;51.368;12.364;2023-04-06T07:38:48;7.50;99.90
15259;DHT22;34462;51.368;12.364;2023-04-06T07:41:17;7.50;99.90
15259;DHT22;34462;51.368;12.364;2023-04-06T07:43:45;7.60;99.90
15259;DHT22;34462;51.368;12.364;2023-04-06T07:46:14;7.60;99.90
15259;DHT22;34462;51.368;12.364;2023-04-06T07:48:43;7.60;99.90
15259;DHT22;34462;51.368;12.364;2023-04-06T07:51:11;7.70;99.90
15259;DHT22;34462;51.368;12.364;2023-04-06T07:53:41;7.60;99.90
15259;DHT22;34462;51.368;12.364;2023-04-06T07:56:09;7.60;99.90
15259;DHT22;34462;51.368;12.364;2023-04-06T07:58:37;7.60;99.90
15259;DHT22;34462;51.368;12.364;2023-04-06T08:01:05;7.60;99.90
15259;DHT22;34462;51.368;12.364;2023-04-06T08:03:35;7.60;99.90
15259;DHT22;34462;51.368;12.364;2023-04-06T08:06:04;7.80;99.90
15259;DHT22;34462;51.368;12.364;2023-04-06T08:08:33;7.70;99.90
15259;DHT22;34462;51.368;12.364;2023-04-06T08:11:01;7.70;99.90
15259;DHT22;34462;51.368;12.364;2023-04-06T08:13:30;7.70;99.90
15259;DHT22;34462;51.368;12.364;2023-04-06T08:15:59;7.80;99.90
15259;DHT22;34462;51.368;12.364;2023-04-06T08:18:28;7.90;99.90
15259;DHT22;34462;51.368;12.364;2023-04-06T08:20:58;8.00;99.90
15259;DHT22;34462;51.368;12.364;2023-04-06T08:23:26;8.00;99.90
15259;DHT22;34462;51.368;12.364;2023-04-06T08:25:54;8.10;99.90
15259;DHT22;34462;51.368;12.364;2023-04-06T08:28:23;8.20;99.90
15259;DHT22;34462;51.368;12.364;2023-04-06T08:30:51;8.20;99.90
15259;DHT22;34462;51.368;12.364;2023-04-06T08:33:19;8.20;99.90
15259;DHT22;34462;51.368;12.364;2023-04-06T08:35:48;8.20;99.90
15259;DHT22;34462;51.368;12.364;2023-04-06T08:38:17;8.30;99.90
15259;DHT22;34462;51.368;12.364;2023-04-06T08:40:46;8.30;99.90
15259;DHT22;34462;51.368;12.364;2023-04-06T08:43:17;8.40;99.90
15259;DHT22;34462;51.368;12.364;2023-04-06T08:45:49;8.50;99.90
15259;DHT22;34462;51.368;12.364;2023-04-06T08:48:18;8.60;99.90
15259;DHT22;34462;51.368;12.364;2023-04-06T08:50:47;8.60;99.90
15259;DHT22;34462;51.368;12.364;2023-04-06T08:53:16;8.80;99.90
15259;DHT22;34462;51.368;12.364;2023-04-06T08:55:50;8.90;99.90
15259;DHT22;34462;51.368;12.364;2023-04-06T08:58:19;9.00;99.90
15259;DHT22;34462;51.368;12.364;2023-04-06T09:01:07;9.10;99.90
15259;DHT22;34462;51.368;12.364;2023-04-06T09:03:39;9.10;99.90
15259;DHT22;34462;51.368;12.364;2023-04-06T09:06:09;9.00;99.90
15259;DHT22;34462;51.368;12.364;2023-04-06T09:08:40;9.10;99.90
15259;DHT22;34462;51.368;12.364;2023-04-06T09:11:10;9.20;99.90
15259;DHT22;34462;51.368;12.364;2023-04-06T09:13:46;9.30;99.90
15259;DHT22;34462;51.368;12.364;2023-04-06T09:16:15;9.30;99.90
15259;DHT22;34462;51.368;12.364;2023-04-06T09:18:44;9.40;99.90
15259;DHT22;34462;51.368;12.364;2023-04-06T09:21:13;9.50;99.90
15259;DHT22;34462;51.368;12.364;2023-04-06T09:23:46;9.60;99.90
15259;DHT22;34462;51.368;12.364;2023-04-06T09:26:16;9.50;99.90
15259;DHT22;34462;51.368;12.364;2023-04-06T09:28:46;9.60;99.90
15259;DHT22;34462;51.368;12.364;2023-04-06T09:31:16;9.70;99.90
15259;DHT22;34462;51.368;12.364;2023-04-06T09:33:49;9.80;99.90
15259;DHT22;34462;51.368;12.364;2023-04-06T09:36:19;9.90;99.90
15259;DHT22;34462;51.368;12.364;2023-04-06T09:38:56;10.00;99.90
15259;DHT22;34462;51.368;12.364;2023-04-06T09:41:27;10.10;99.90
15259;DHT22;34462;51.368;12.364;2023-04-06T09:44:03;10.10;99.90
15259;DHT22;34462;51.368;12.364;2023-04-06T09:46:35;10.00;99.90
15259;DHT22;34462;51.368;12.364;2023-04-06T09:49:25;10.00;99.90
15259;DHT22;34462;51.368;12.364;2023-04-06T09:51:59;10.00;99.90
15259;DHT22;34462;51.368;12.364;2023-04-06T09:54:31;9.90;99.90
15259;DHT22;34462;51.368;12.364;2023-04-06T09:57:07;9.70;99.90
15259;DHT22;34462;51.368;12.364;2023-04-06T09:59:44;9.50;99.90
15259;DHT22;34462;51.368;12.364;2023-04-06T10:02:24;9.50;99.90
15259;DHT22;34462;51.368;12.364;2023-04-06T10:05:05;9.50;99.90
15259;DHT22;34462;51.368;12.364;2023-04-06T10:07:39;9.80;99.90
15259;DHT22;34462;51.368;12.364;2023-04-06T10:10:27;10.00;99.90
15259;DHT22;34462;51.368;12.364;2023-04-06T10:12:57;10.10;99.90
15259;DHT22;34462;51.368;12.364;2023-04-06T10:15:27;10.30;99.90
15259;DHT22;34462;51.368;12.364;2023-04-06T10:17:57;10.60;99.90
15259;DHT22;34462;51.368;12.364;2023-04-06T10:20:31;10.70;99.90
15259;DHT22;34462;51.368;12.364;2023-04-06T10:23:08;10.80;99.90
15259;DHT22;34462;51.368;12.364;2023-04-06T10:25:53;10.90;99.90
15259;DHT22;34462;51.368;12.364;2023-04-06T10:28:22;11.00;99.90
15259;DHT22;34462;51.368;12.364;2023-04-06T10:30:57;11.10;99.90
15259;DHT22;34462;51.368;12.364;2023-04-06T10:33:26;11.10;99.90
15259;DHT22;34462;51.368;12.364;2023-04-06T10:35:55;11.30;99.90
15259;DHT22;34462;51.368;12.364;2023-04-06T10:38:33;11.20;99.90
15259;DHT22;34462;51.368;12.364;2023-04-06T10:41:09;11.10;99.90
15259;DHT22;34462;51.368;12.364;2023-04-06T10:43:40;11.10;99.90
15259;DHT22;34462;51.368;12.364;2023-04-06T10:46:09;10.80;99.90
15259;DHT22;34462;51.368;12.364;2023-04-06T10:48:39;10.60;99.90
15259;DHT22;34462;51.368;12.364;2023-04-06T10:51:10;10.30;99.90
15259;DHT22;34462;51.368;12.364;2023-04-06T10:53:41;10.20;99.90
15259;DHT22;34462;51.368;12.364;2023-04-06T10:56:13;10.20;99.90
15259;DHT22;34462;51.368;12.364;2023-04-06T10:58:46;10.10;99.90
15259;DHT22;34462;51.368;12.364;2023-04-06T11:01:15;10.20;99.90
15259;DHT22;34462;51.368;12.364;2023-04-06T11:03:45;10.20;99.90
15259;DHT22;34462;51.368;12.364;2023-04-06T11:06:21;10.20;99.90
15259;DHT22;34462;51.368;12.364;2023-04-06T11:08:51;10.30;99.90
15259;DHT22;34462;51.368;12.364;2023-04-06T11:11:23;10.30;99.90
15259;DHT22;34462;51.368;12.364;2023-04-06T11:13:54;10.30;99.90
15259;DHT22;34462;51.368;12.364;2023-04-06T11:16:26;10.10;99.90
15259;DHT22;34462;51.368;12.364;2023-04-06T11:18:56;10.00;99.90
15259;DHT22;34462;51.368;12.364;2023-04-06T11:21:33;10.20;99.90
15259;DHT22;34462;51.368;12.364;2023-04-06T11:24:10;10.30;99.90
15259;DHT22;34462;51.368;12.364;2023-04-06T11:26:43;10.60;99.90
15259;DHT22;34462;51.368;12.364;2023-04-06T11:29:13;10.70;99.90
15259;DHT22;34462;51.368;12.364;2023-04-06T11:31:44;10.80;99.90
15259;DHT22;34462;51.368;12.364;2023-04-06T11:34:16;11.00;99.90
15259;DHT22;34462;51.368;12.364;2023-04-06T11:36:48;11.10;99.90
15259;DHT22;34462;51.368;12.364;2023-04-06T11:39:21;11.30;99.90
15259;DHT22;34462;51.368;12.364;2023-04-06T11:41:54;11.40;99.90
15259;DHT22;34462;51.368;12.364;2023-04-06T11:44:31;11.30;99.90
15259;DHT22;34462;51.368;12.364;2023-04-06T11:47:01;11.40;99.90
15259;DHT22;34462;51.368;12.364;2023-04-06T11:49:32;11.20;99.90
15259;DHT22;34462;51.368;12.364;2023-04-06T11:52:01;11.10;99.90
15259;DHT22;34462;51.368;12.364;2023-04-06T11:54:31;10.80;99.90
15259;DHT22;34462;51.368;12.364;2023-04-06T11:57:02;10.70;99.90
15259;DHT22;34462;51.368;12.364;2023-04-06T11:59:31;10.70;99.90
15259;DHT22;34462;51.368;12.364;2023-04-06T12:02:01;10.80;99.90
15259;DHT22;34462;51.368;12.364;2023-04-06T12:04:30;11.00;99.90
15259;DHT22;34462;51.368;12.364;2023-04-06T12:06:59;11.00;99.90
15259;DHT22;34462;51.368;12.364;2023-04-06T12:09:27;11.10;99.90
15259;DHT22;34462;51.368;12.364;2023-04-06T12:11:56;11.20;99.90
15259;DHT22;34462;51.368;12.364;2023-04-06T12:14:26;11.30;99.90
15259;DHT22;34462;51.368;12.364;2023-04-06T12:16:54;11.40;99.90
15259;DHT22;34462;51.368;12.364;2023-04-06T12:19:22;11.40;99.90
15259;DHT22;34462;51.368;12.364;2023-04-06T12:21:52;11.50;99.90
15259;DHT22;34462;51.368;12.364;2023-04-06T12:24:21;11.50;99.90
15259;DHT22;34462;51.368;12.364;2023-04-06T12:26:49;11.50;99.90
15259;DHT22;34462;51.368;12.364;2023-04-06T12:29:33;11.60;99.90
15259;DHT22;34462;51.368;12.364;2023-04-06T12:32:02;11.60;99.90
15259;DHT22;34462;51.368;12.364;2023-04-06T12:34:30;11.70;99.90
15259;DHT22;34462;51.368;12.364;2023-04-06T12:36:58;11.70;99.90
15259;DHT22;34462;51.368;12.364;2023-04-06T12:39:27;11.60;99.90
15259;DHT22;34462;51.368;12.364;2023-04-06T12:41:57;11.40;99.90
15259;DHT22;34462;51.368;12.364;2023-04-06T12:44:25;11.50;99.90
15259;DHT22;34462;51.368;12.364;2023-04-06T12:46:54;11.50;99.90
15259;DHT22;34462;51.368;12.364;2023-04-06T12:49:23;11.50;99.90
15259;DHT22;34462;51.368;12.364;2023-04-06T12:51:52;11.50;99.90
15259;DHT22;34462;51.368;12.364;2023-04-06T12:54:20;11.60;99.90
15259;DHT22;34462;51.368;12.364;2023-04-06T12:56:48;11.70;99.90
15259;DHT22;34462;51.368;12.364;2023-04-06T12:59:17;11.70;99.90
15259;DHT22;34462;51.368;12.364;2023-04-06T13:01:45;11.60;99.90
15259;DHT22;34462;51.368;12.364;2023-04-06T13:04:15;11.60;99.90
15259;DHT22;34462;51.368;12.364;2023-04-06T13:06:43;11.70;99.90
15259;DHT22;34462;51.368;12.364;2023-04-06T13:09:11;11.80;99.90
15259;DHT22;34462;51.368;12.364;2023-04-06T13:11:40;11.90;99.90
15259;DHT22;34462;51.368;12.364;2023-04-06T13:14:08;11.80;99.90
15259;DHT22;34462;51.368;12.364;2023-04-06T13:16:37;11.70;99.90
15259;DHT22;34462;51.368;12.364;2023-04-06T13:19:06;11.60;99.90
15259;DHT22;34462;51.368;12.364;2023-04-06T13:21:36;11.70;99.90
15259;DHT22;34462;51.368;12.364;2023-04-06T13:24:04;11.80;99.90
15259;DHT22;34462;51.368;12.364;2023-04-06T13:26:32;11.90;99.90
15259;DHT22;34462;51.368;12.364;2023-04-06T13:29:01;11.80;99.90
15259;DHT22;34462;51.368;12.364;2023-04-06T13:31:29;11.70;99.90
15259;DHT22;34462;51.368;12.364;2023-04-06T13:33:58;11.80;99.90
15259;DHT22;34462;51.368;12.364;2023-04-06T13:36:26;11.80;99.90
15259;DHT22;34462;51.368;12.364;2023-04-06T13:38:56;11.80;99.90
15259;DHT22;34462;51.368;12.364;2023-04-06T13:41:25;11.80;99.90
15259;DHT22;34462;51.368;12.364;2023-04-06T13:43:54;11.90;99.90
15259;DHT22;34462;51.368;12.364;2023-04-06T13:46:26;11.90;99.90
15259;DHT22;34462;51.368;12.364;2023-04-06T13:48:54;12.00;99.90
15259;DHT22;34462;51.368;12.364;2023-04-06T13:51:22;11.90;99.90
15259;DHT22;34462;51.368;12.364;2023-04-06T13:53:51;11.90;99.90
15259;DHT22;34462;51.368;12.364;2023-04-06T13:56:21;11.90;99.90
15259;DHT22;34462;51.368;12.364;2023-04-06T13:58:49;12.00;99.90
15259;DHT22;34462;51.368;12.364;2023-04-06T14:01:21;12.00;99.90
15259;DHT22;34462;51.368;12.364;2023-04-06T14:03:49;12.00;99.90
15259;DHT22;34462;51.368;12.364;2023-04-06T14:06:18;11.90;99.90
15259;DHT22;34462;51.368;12.364;2023-04-06T14:08:57;11.90;99.90
15259;DHT22;34462;51.368;12.364;2023-04-06T14:11:27;11.90;99.90
15259;DHT22;34462;51.368;12.364;2023-04-06T14:13:55;11.80;99.90
15259;DHT22;34462;51.368;12.364;2023-04-06T14:16:24;11.80;99.90
15259;DHT22;34462;51.368;12.364;2023-04-06T14:18:53;11.70;99.90
15259;DHT22;34462;51.368;12.364;2023-04-06T14:21:24;11.70;99.90
15259;DHT22;34462;51.368;12.364;2023-04-06T14:23:53;11.90;99.90
15259;DHT22;34462;51.368;12.364;2023-04-06T14:26:26;11.90;99.90
15259;DHT22;34462;51.368;12.364;2023-04-06T14:28:55;11.90;99.90
15259;DHT22;34462;51.368;12.364;2023-04-06T14:31:23;11.80;99.90
15259;DHT22;34462;51.368;12.364;2023-04-06T14:33:51;11.80;99.90
15259;DHT22;34462;51.368;12.364;2023-04-06T14:36:20;11.80;99.90
15259;DHT22;34462;51.368;12.364;2023-04-06T14:38:48;11.80;99.90
15259;DHT22;34462;51.368;12.364;2023-04-06T14:41:17;11.70;99.90
15259;DHT22;34462;51.368;12.364;2023-04-06T14:43:47;11.80;99.90
15259;DHT22;34462;51.368;12.364;2023-04-06T14:46:15;11.80;99.90
15259;DHT22;34462;51.368;12.364;2023-04-06T14:48:44;11.80;99.90
15259;DHT22;34462;51.368;12.364;2023-04-06T14:51:12;11.80;99.90
15259;DHT22;34462;51.368;12.364;2023-04-06T14:53:41;11.70;99.90
15259;DHT22;34462;51.368;12.364;2023-04-06T14:56:10;11.70;99.90
15259;DHT22;34462;51.368;12.364;2023-04-06T14:58:38;11.70;99.90
15259;DHT22;34462;51.368;12.364;2023-04-06T15:01:07;11.70;99.90
15259;DHT22;34462;51.368;12.364;2023-04-06T15:03:35;11.70;99.90
15259;DHT22;34462;51.368;12.364;2023-04-06T15:06:04;11.60;99.90
15259;DHT22;34462;51.368;12.364;2023-04-06T15:08:33;11.50;99.90
15259;DHT22;34462;51.368;12.364;2023-04-06T15:11:01;11.50;99.90
15259;DHT22;34462;51.368;12.364;2023-04-06T15:13:29;11.40;99.90
15259;DHT22;34462;51.368;12.364;2023-04-06T15:15:57;11.50;99.90
15259;DHT22;34462;51.368;12.364;2023-04-06T15:18:29;11.40;99.90
15259;DHT22;34462;51.368;12.364;2023-04-06T15:20:57;11.40;99.90
15259;DHT22;34462;51.368;12.364;2023-04-06T15:23:25;11.40;99.90
15259;DHT22;34462;51.368;12.364;2023-04-06T15:25:56;11.40;99.90
15259;DHT22;34462;51.368;12.364;2023-04-06T15:28:24;11.50;99.90
15259;DHT22;34462;51.368;12.364;2023-04-06T15:30:53;11.50;99.90
15259;DHT22;34462;51.368;12.364;2023-04-06T15:33:23;11.40;99.90
15259;DHT22;34462;51.368;12.364;2023-04-06T15:35:54;11.30;99.90
15259;DHT22;34462;51.368;12.364;2023-04-06T15:38:22;11.20;99.90